sensor_id;sensor_type;location;lat;lon;timestamp;temperature;humidity
21104;DHT22;10710;53.398;-1.514;2023-02-23T00:01:58;7.90;99.90
21104;DHT22;10710;53.398;-1.514;2023-02-23T00:04:28;7.90;99.90
21104;DHT22;10710;53.398;-1.514;2023-02-23T00:06:53;7.80;99.90
21104;DHT22;10710;53.398;-1.514;2023-02-23T00:09:19;7.80;99.90
21104;DHT22;10710;53.398;-1.514;2023-02-23T00:11:59;7.90;99.90
21104;DHT22;10710;53.398;-1.514;2023-02-23T00:14:32;8.00;99.90
21104;DHT22;10710;53.398;-1.514;2023-02-23T00:16:59;7.90;99.90
21104;DHT22;10710;53.398;-1.514;2023-02-23T00:19:25;7.80;99.90
21104;DHT22;10710;53.398;-1.514;2023-02-23T00:21:51;7.80;99.90
21104;DHT22;10710;53.398;-1.514;2023-02-23T00:24:17;7.80;99.90
21104;DHT22;10710;53.398;-1.514;2023-02-23T00:26:45;7.80;99.90
21104;DHT22;10710;53.398;-1.514;2023-02-23T00:29:14;7.60;99.90
21104;DHT22;10710;53.398;-1.514;2023-02-23T00:31:42;7.50;99.90
21104;DHT22;10710;53.398;-1.514;2023-02-23T00:34:10;7.50;99.90
21104;DHT22;10710;53.398;-1.514;2023-02-23T00:36:36;7.50;99.90
21104;DHT22;10710;53.398;-1.514;2023-02-23T00:39:06;7.40;99.90
21104;DHT22;10710;53.398;-1.514;2023-02-23T00:41:44;7.50;99.90
21104;DHT22;10710;53.398;-1.514;2023-02-23T00:44:09;7.50;99.90
21104;DHT22;10710;53.398;-1.514;2023-02-23T00:46:35;7.60;99.90
21104;DHT22;10710;53.398;-1.514;2023-02-23T00:49:01;7.60;99.90
21104;DHT22;10710;53.398;-1.514;2023-02-23T00:51:29;7.70;99.90
21104;DHT22;10710;53.398;-1.514;2023-02-23T00:53:56;7.70;99.90
21104;DHT22;10710;53.398;-1.514;2023-02-23T00:56:22;7.70;99.90
21104;DHT22;10710;53.398;-1.514;2023-02-23T00:58:48;7.80;99.90
21104;DHT22;10710;53.398;-1.514;2023-02-23T01:01:14;7.70;99.90
21104;DHT22;10710;53.398;-1.514;2023-02-23T01:03:41;7.80;99.90
21104;DHT22;10710;53.398;-1.514;2023-02-23T01:06:09;7.80;99.90
21104;DHT22;10710;53.398;-1.514;2023-02-23T01:08:38;7.90;99.90
21104;DHT22;10710;53.398;-1.514;2023-02-23T01:11:09;7.80;99.90
21104;DHT22;10710;53.398;-1.514;2023-02-23T01:13:37;7.80;99.90
21104;DHT22;10710;53.398;-1.514;2023-02-23T01:16:11;7.80;99.90
21104;DHT22;10710;53.398;-1.514;2023-02-23T01:18:39;7.90;99.90
21104;DHT22;10710;53.398;-1.514;2023-02-23T01:21:23;7.80;99.90
21104;DHT22;10710;53.398;-1.514;2023-02-23T01:23:51;7.80;99.90
21104;DHT22;10710;53.398;-1.514;2023-02-23T01:26:18;7.80;99.90
21104;DHT22;10710;53.398;-1.514;2023-02-23T01:28:52;7.80;99.90
21104;DHT22;10710;53.398;-1.514;2023-02-23T01:31:22;7.80;99.90
21104;DHT22;10710;53.398;-1.514;2023-02-23T01:33:58;7.80;99.90
21104;DHT22;10710;53.398;-1.514;2023-02-23T01:36:25;7.90;99.90
21104;DHT22;10710;53.398;-1.514;2023-02-23T01:38:54;7.80;99.90
21104;DHT22;10710;53.398;-1.514;2023-02-23T01:41:26;7.90;99.90
21104;DHT22;10710;53.398;-1.514;2023-02-23T01:46:20;8.00;99.90
21104;DHT22;10710;53.398;-1.514;2023-02-23T01:48:45;8.00;99.90
21104;DHT22;10710;53.398;-1.514;2023-02-23T01:51:15;8.10;99.90
21104;DHT22;10710;53.398;-1.514;2023-02-23T01:53:50;7.90;99.90
21104;DHT22;10710;53.398;-1.514;2023-02-23T01:56:24;7.90;99.90
21104;DHT22;10710;53.398;-1.514;2023-02-23T01:58:54;7.90;99.90
21104;DHT22;10710;53.398;-1.514;2023-02-23T02:01:22;7.70;99.90
21104;DHT22;10710;53.398;-1.514;2023-02-23T02:03:52;7.60;99.90
21104;DHT22;10710;53.398;-1.514;2023-02-23T02:06:20;7.70;99.90
21104;DHT22;10710;53.398;-1.514;2023-02-23T02:08:51;7.60;99.90
21104;DHT22;10710;53.398;-1.514;2023-02-23T02:11:23;7.40;99.90
21104;DHT22;10710;53.398;-1.514;2023-02-23T02:20:13;7.40;99.90
21104;DHT22;10710;53.398;-1.514;2023-02-23T02:25:55;7.40;99.90
21104;DHT22;10710;53.398;-1.514;2023-02-23T02:30:58;7.50;99.90
21104;DHT22;10710;53.398;-1.514;2023-02-23T02:39:51;7.20;99.90
21104;DHT22;10710;53.398;-1.514;2023-02-23T02:42:34;7.20;99.90
21104;DHT22;10710;53.398;-1.514;2023-02-23T02:45:12;7.10;99.90
21104;DHT22;10710;53.398;-1.514;2023-02-23T02:47:48;7.00;99.90
21104;DHT22;10710;53.398;-1.514;2023-02-23T02:50:29;7.00;99.90
21104;DHT22;10710;53.398;-1.514;2023-02-23T02:53:04;6.90;99.90
21104;DHT22;10710;53.398;-1.514;2023-02-23T02:55:33;6.90;99.90
21104;DHT22;10710;53.398;-1.514;2023-02-23T02:58:01;6.90;99.90
21104;DHT22;10710;53.398;-1.514;2023-02-23T03:00:45;6.90;99.90
21104;DHT22;10710;53.398;-1.514;2023-02-23T03:06:19;6.90;99.90
21104;DHT22;10710;53.398;-1.514;2023-02-23T03:12:26;6.80;99.90
21104;DHT22;10710;53.398;-1.514;2023-02-23T03:21:45;6.80;99.90
21104;DHT22;10710;53.398;-1.514;2023-02-23T03:27:22;6.80;99.90
21104;DHT22;10710;53.398;-1.514;2023-02-23T03:30:19;6.60;99.90
21104;DHT22;10710;53.398;-1.514;2023-02-23T03:33:11;6.60;99.90
21104;DHT22;10710;53.398;-1.514;2023-02-23T03:36:06;6.70;99.90
21104;DHT22;10710;53.398;-1.514;2023-02-23T03:39:29;6.60;99.90
21104;DHT22;10710;53.398;-1.514;2023-02-23T03:42:20;6.60;99.90
21104;DHT22;10710;53.398;-1.514;2023-02-23T03:45:12;6.50;99.90
21104;DHT22;10710;53.398;-1.514;2023-02-23T03:47:59;6.60;99.90
21104;DHT22;10710;53.398;-1.514;2023-02-23T03:50:55;6.50;99.90
21104;DHT22;10710;53.398;-1.514;2023-02-23T03:54:09;6.40;99.90
21104;DHT22;10710;53.398;-1.514;2023-02-23T03:56:58;6.30;99.90
21104;DHT22;10710;53.398;-1.514;2023-02-23T03:59:49;6.20;99.90
21104;DHT22;10710;53.398;-1.514;2023-02-23T04:02:35;6.20;99.90
21104;DHT22;10710;53.398;-1.514;2023-02-23T04:05:21;6.10;99.90
21104;DHT22;10710;53.398;-1.514;2023-02-23T04:08:09;6.10;99.90
21104;DHT22;10710;53.398;-1.514;2023-02-23T04:11:01;6.20;99.90
21104;DHT22;10710;53.398;-1.514;2023-02-23T04:13:54;6.10;99.90
21104;DHT22;10710;53.398;-1.514;2023-02-23T04:16:22;6.20;99.90
21104;DHT22;10710;53.398;-1.514;2023-02-23T04:18:48;6.10;99.90
21104;DHT22;10710;53.398;-1.514;2023-02-23T04:21:14;6.20;99.90
21104;DHT22;10710;53.398;-1.514;2023-02-23T04:23:40;6.10;99.90
21104;DHT22;10710;53.398;-1.514;2023-02-23T04:26:06;6.20;99.90
21104;DHT22;10710;53.398;-1.514;2023-02-23T04:28:32;6.20;99.90
21104;DHT22;10710;53.398;-1.514;2023-02-23T04:30:58;6.10;99.90
21104;DHT22;10710;53.398;-1.514;2023-02-23T04:33:24;6.10;99.90
21104;DHT22;10710;53.398;-1.514;2023-02-23T04:35:52;6.20;99.90
21104;DHT22;10710;53.398;-1.514;2023-02-23T04:38:20;6.20;99.90
21104;DHT22;10710;53.398;-1.514;2023-02-23T04:40:46;6.20;99.90
21104;DHT22;10710;53.398;-1.514;2023-02-23T04:43:12;6.30;99.90
21104;DHT22;10710;53.398;-1.514;2023-02-23T04:45:38;6.20;99.90
21104;DHT22;10710;53.398;-1.514;2023-02-23T04:48:04;6.20;99.90
21104;DHT22;10710;53.398;-1.514;2023-02-23T04:50:29;6.10;99.90
21104;DHT22;10710;53.398;-1.514;2023-02-23T04:52:55;6.20;99.90
21104;DHT22;10710;53.398;-1.514;2023-02-23T04:55:22;6.10;99.90
21104;DHT22;10710;53.398;-1.514;2023-02-23T04:57:50;6.20;99.90
21104;DHT22;10710;53.398;-1.514;2023-02-23T05:00:17;6.20;99.90
21104;DHT22;10710;53.398;-1.514;2023-02-23T05:02:44;6.30;99.90
21104;DHT22;10710;53.398;-1.514;2023-02-23T05:05:10;6.30;99.90
21104;DHT22;10710;53.398;-1.514;2023-02-23T05:07:36;6.20;99.90
21104;DHT22;10710;53.398;-1.514;2023-02-23T05:10:04;6.20;99.90
21104;DHT22;10710;53.398;-1.514;2023-02-23T05:12:30;6.10;99.90
21104;DHT22;10710;53.398;-1.514;2023-02-23T05:14:56;6.20;99.90
21104;DHT22;10710;53.398;-1.514;2023-02-23T05:17:22;6.10;99.90
21104;DHT22;10710;53.398;-1.514;2023-02-23T05:19:48;6.00;99.90
21104;DHT22;10710;53.398;-1.514;2023-02-23T05:22:14;6.00;99.90
21104;DHT22;10710;53.398;-1.514;2023-02-23T05:24:40;6.00;99.90
21104;DHT22;10710;53.398;-1.514;2023-02-23T05:27:07;5.90;99.90
21104;DHT22;10710;53.398;-1.514;2023-02-23T05:29:33;5.90;99.90
21104;DHT22;10710;53.398;-1.514;2023-02-23T05:31:59;5.80;99.90
21104;DHT22;10710;53.398;-1.514;2023-02-23T05:34:25;5.80;99.90
21104;DHT22;10710;53.398;-1.514;2023-02-23T05:36:52;5.70;99.90
21104;DHT22;10710;53.398;-1.514;2023-02-23T05:39:19;5.70;99.90
21104;DHT22;10710;53.398;-1.514;2023-02-23T05:41:45;5.80;99.90
21104;DHT22;10710;53.398;-1.514;2023-02-23T05:44:10;5.80;99.90
21104;DHT22;10710;53.398;-1.514;2023-02-23T05:46:36;5.80;99.90
21104;DHT22;10710;53.398;-1.514;2023-02-23T05:49:02;5.90;99.90
21104;DHT22;10710;53.398;-1.514;2023-02-23T05:51:29;5.90;99.90
21104;DHT22;10710;53.398;-1.514;2023-02-23T05:53:56;6.00;99.90
21104;DHT22;10710;53.398;-1.514;2023-02-23T05:56:22;5.90;99.90
21104;DHT22;10710;53.398;-1.514;2023-02-23T05:58:49;5.80;99.90
21104;DHT22;10710;53.398;-1.514;2023-02-23T06:01:16;5.70;99.90
21104;DHT22;10710;53.398;-1.514;2023-02-23T06:03:43;5.70;99.90
21104;DHT22;10710;53.398;-1.514;2023-02-23T06:06:09;5.80;99.90
21104;DHT22;10710;53.398;-1.514;2023-02-23T06:08:34;5.90;99.90
21104;DHT22;10710;53.398;-1.514;2023-02-23T06:11:00;5.70;99.90
21104;DHT22;10710;53.398;-1.514;2023-02-23T06:13:26;5.60;99.90
21104;DHT22;10710;53.398;-1.514;2023-02-23T06:15:53;5.60;99.90
21104;DHT22;10710;53.398;-1.514;2023-02-23T06:18:18;5.60;99.90
21104;DHT22;10710;53.398;-1.514;2023-02-23T06:20:46;5.60;99.90
21104;DHT22;10710;53.398;-1.514;2023-02-23T06:23:12;5.70;99.90
21104;DHT22;10710;53.398;-1.514;2023-02-23T06:25:37;5.70;99.90
21104;DHT22;10710;53.398;-1.514;2023-02-23T06:28:04;5.70;99.90
21104;DHT22;10710;53.398;-1.514;2023-02-23T06:30:32;5.70;99.90
21104;DHT22;10710;53.398;-1.514;2023-02-23T06:32:57;5.70;99.90
21104;DHT22;10710;53.398;-1.514;2023-02-23T06:35:23;5.70;99.90
21104;DHT22;10710;53.398;-1.514;2023-02-23T06:37:50;5.80;99.90
21104;DHT22;10710;53.398;-1.514;2023-02-23T06:40:15;5.80;99.90
21104;DHT22;10710;53.398;-1.514;2023-02-23T06:42:41;5.80;99.90
21104;DHT22;10710;53.398;-1.514;2023-02-23T06:45:07;5.80;99.90
21104;DHT22;10710;53.398;-1.514;2023-02-23T06:47:33;5.80;99.90
21104;DHT22;10710;53.398;-1.514;2023-02-23T06:49:59;5.90;99.90
21104;DHT22;10710;53.398;-1.514;2023-02-23T06:52:24;5.80;99.90
21104;DHT22;10710;53.398;-1.514;2023-02-23T06:54:50;5.80;99.90
21104;DHT22;10710;53.398;-1.514;2023-02-23T06:57:16;5.80;99.90
21104;DHT22;10710;53.398;-1.514;2023-02-23T06:59:43;5.80;99.90
21104;DHT22;10710;53.398;-1.514;2023-02-23T07:02:11;5.80;99.90
21104;DHT22;10710;53.398;-1.514;2023-02-23T07:04:37;5.70;99.90
21104;DHT22;10710;53.398;-1.514;2023-02-23T07:07:03;5.70;99.90
21104;DHT22;10710;53.398;-1.514;2023-02-23T07:09:29;5.70;99.90
21104;DHT22;10710;53.398;-1.514;2023-02-23T07:11:55;5.70;99.90
21104;DHT22;10710;53.398;-1.514;2023-02-23T07:14:20;5.70;99.90
21104;DHT22;10710;53.398;-1.514;2023-02-23T07:16:46;5.60;99.90
21104;DHT22;10710;53.398;-1.514;2023-02-23T07:19:12;5.60;99.90
21104;DHT22;10710;53.398;-1.514;2023-02-23T07:21:38;5.70;99.90
21104;DHT22;10710;53.398;-1.514;2023-02-23T07:24:03;5.60;99.90
21104;DHT22;10710;53.398;-1.514;2023-02-23T07:26:33;5.60;99.90
21104;DHT22;10710;53.398;-1.514;2023-02-23T07:28:59;5.70;99.90
21104;DHT22;10710;53.398;-1.514;2023-02-23T07:31:25;5.70;99.90
21104;DHT22;10710;53.398;-1.514;2023-02-23T07:33:52;5.80;99.90
21104;DHT22;10710;53.398;-1.514;2023-02-23T07:36:22;5.70;99.90
21104;DHT22;10710;53.398;-1.514;2023-02-23T07:38:49;5.80;99.90
21104;DHT22;10710;53.398;-1.514;2023-02-23T07:41:14;5.70;99.90
21104;DHT22;10710;53.398;-1.514;2023-02-23T07:43:40;5.60;99.90
21104;DHT22;10710;53.398;-1.514;2023-02-23T07:46:06;5.50;99.90
21104;DHT22;10710;53.398;-1.514;2023-02-23T07:48:33;5.60;99.90
21104;DHT22;10710;53.398;-1.514;2023-02-23T07:50:59;5.60;99.90
21104;DHT22;10710;53.398;-1.514;2023-02-23T07:53:24;5.50;99.90
21104;DHT22;10710;53.398;-1.514;2023-02-23T07:55:58;5.50;99.90
21104;DHT22;10710;53.398;-1.514;2023-02-23T07:58:26;5.50;99.90
21104;DHT22;10710;53.398;-1.514;2023-02-23T08:00:52;5.30;99.90
21104;DHT22;10710;53.398;-1.514;2023-02-23T08:03:17;5.40;99.90
21104;DHT22;10710;53.398;-1.514;2023-02-23T08:05:43;5.40;99.90
21104;DHT22;10710;53.398;-1.514;2023-02-23T08:08:09;5.40;99.90
21104;DHT22;10710;53.398;-1.514;2023-02-23T08:10:36;5.50;99.90
21104;DHT22;10710;53.398;-1.514;2023-02-23T08:13:03;5.40;99.90
21104;DHT22;10710;53.398;-1.514;2023-02-23T08:15:28;5.50;99.90
21104;DHT22;10710;53.398;-1.514;2023-02-23T08:17:54;5.50;99.90
21104;DHT22;10710;53.398;-1.514;2023-02-23T08:20:20;5.50;99.90
21104;DHT22;10710;53.398;-1.514;2023-02-23T08:22:46;5.50;99.90
21104;DHT22;10710;53.398;-1.514;2023-02-23T08:25:11;5.50;99.90
21104;DHT22;10710;53.398;-1.514;2023-02-23T08:27:37;5.40;99.90
21104;DHT22;10710;53.398;-1.514;2023-02-23T08:30:04;5.50;99.90
21104;DHT22;10710;53.398;-1.514;2023-02-23T08:32:34;5.50;99.90
21104;DHT22;10710;53.398;-1.514;2023-02-23T08:35:00;5.50;99.90
21104;DHT22;10710;53.398;-1.514;2023-02-23T08:37:27;5.50;99.90
21104;DHT22;10710;53.398;-1.514;2023-02-23T08:39:54;5.50;99.90
21104;DHT22;10710;53.398;-1.514;2023-02-23T08:42:20;5.70;99.90
21104;DHT22;10710;53.398;-1.514;2023-02-23T08:44:46;5.70;99.90
21104;DHT22;10710;53.398;-1.514;2023-02-23T08:47:14;5.70;99.90
21104;DHT22;10710;53.398;-1.514;2023-02-23T08:49:41;5.80;99.90
21104;DHT22;10710;53.398;-1.514;2023-02-23T08:52:07;5.90;99.90
21104;DHT22;10710;53.398;-1.514;2023-02-23T08:54:32;5.80;99.90
21104;DHT22;10710;53.398;-1.514;2023-02-23T08:56:58;5.90;99.90
21104;DHT22;10710;53.398;-1.514;2023-02-23T08:59:24;6.00;99.90
21104;DHT22;10710;53.398;-1.514;2023-02-23T09:01:50;6.00;99.90
21104;DHT22;10710;53.398;-1.514;2023-02-23T09:04:16;6.10;99.90
21104;DHT22;10710;53.398;-1.514;2023-02-23T09:06:43;6.00;99.90
21104;DHT22;10710;53.398;-1.514;2023-02-23T09:09:09;6.10;99.90
21104;DHT22;10710;53.398;-1.514;2023-02-23T09:11:35;6.10;99.90
21104;DHT22;10710;53.398;-1.514;2023-02-23T09:14:00;6.20;99.90
21104;DHT22;10710;53.398;-1.514;2023-02-23T09:16:26;6.30;99.90
21104;DHT22;10710;53.398;-1.514;2023-02-23T09:18:52;6.30;99.90
21104;DHT22;10710;53.398;-1.514;2023-02-23T09:21:19;6.40;99.90
21104;DHT22;10710;53.398;-1.514;2023-02-23T09:23:50;6.40;99.90
21104;DHT22;10710;53.398;-1.514;2023-02-23T09:26:17;6.50;99.90
21104;DHT22;10710;53.398;-1.514;2023-02-23T09:28:43;6.50;99.90
21104;DHT22;10710;53.398;-1.514;2023-02-23T09:31:12;6.60;99.90
21104;DHT22;10710;53.398;-1.514;2023-02-23T09:33:56;6.60;99.90
21104;DHT22;10710;53.398;-1.514;2023-02-23T09:36:41;6.60;99.90
21104;DHT22;10710;53.398;-1.514;2023-02-23T09:39:25;6.70;99.90
21104;DHT22;10710;53.398;-1.514;2023-02-23T09:42:24;6.70;99.90
21104;DHT22;10710;53.398;-1.514;2023-02-23T09:48:10;6.70;99.90
21104;DHT22;10710;53.398;-1.514;2023-02-23T09:50:57;6.70;99.90
21104;DHT22;10710;53.398;-1.514;2023-02-23T09:54:03;6.80;99.90
21104;DHT22;10710;53.398;-1.514;2023-02-23T09:56:48;6.90;99.90
21104;DHT22;10710;53.398;-1.514;2023-02-23T09:59:35;7.00;99.90
21104;DHT22;10710;53.398;-1.514;2023-02-23T10:02:33;7.10;99.90
21104;DHT22;10710;53.398;-1.514;2023-02-23T10:05:22;7.20;99.90
21104;DHT22;10710;53.398;-1.514;2023-02-23T10:12:28;7.20;99.90
21104;DHT22;10710;53.398;-1.514;2023-02-23T10:15:21;7.40;99.90
21104;DHT22;10710;53.398;-1.514;2023-02-23T10:18:32;7.60;99.90
21104;DHT22;10710;53.398;-1.514;2023-02-23T10:21:55;7.60;99.90
21104;DHT22;10710;53.398;-1.514;2023-02-23T10:24:43;7.70;99.90
21104;DHT22;10710;53.398;-1.514;2023-02-23T10:27:40;7.80;99.90
21104;DHT22;10710;53.398;-1.514;2023-02-23T10:30:28;8.10;99.90
21104;DHT22;10710;53.398;-1.514;2023-02-23T10:33:14;8.30;99.90
21104;DHT22;10710;53.398;-1.514;2023-02-23T10:36:11;8.40;99.90
21104;DHT22;10710;53.398;-1.514;2023-02-23T10:38:57;8.50;99.90
21104;DHT22;10710;53.398;-1.514;2023-02-23T10:41:42;8.50;99.90
21104;DHT22;10710;53.398;-1.514;2023-02-23T10:44:27;8.60;99.90
21104;DHT22;10710;53.398;-1.514;2023-02-23T10:47:20;8.30;99.90
21104;DHT22;10710;53.398;-1.514;2023-02-23T10:50:09;8.40;99.90
21104;DHT22;10710;53.398;-1.514;2023-02-23T10:53:09;8.70;99.90
21104;DHT22;10710;53.398;-1.514;2023-02-23T10:56:12;8.80;99.90
21104;DHT22;10710;53.398;-1.514;2023-02-23T10:58:57;9.00;99.90
21104;DHT22;10710;53.398;-1.514;2023-02-23T11:01:42;9.00;99.90
21104;DHT22;10710;53.398;-1.514;2023-02-23T11:04:31;9.00;99.90
21104;DHT22;10710;53.398;-1.514;2023-02-23T11:07:08;9.00;99.90
21104;DHT22;10710;53.398;-1.514;2023-02-23T11:09:34;9.10;99.90
21104;DHT22;10710;53.398;-1.514;2023-02-23T11:12:16;9.10;99.90
21104;DHT22;10710;53.398;-1.514;2023-02-23T11:14:49;9.10;99.90
21104;DHT22;10710;53.398;-1.514;2023-02-23T11:17:31;9.10;99.90
21104;DHT22;10710;53.398;-1.514;2023-02-23T11:20:25;9.20;99.90
21104;DHT22;10710;53.398;-1.514;2023-02-23T11:22:52;9.20;99.90
21104;DHT22;10710;53.398;-1.514;2023-02-23T11:25:30;9.20;99.90
21104;DHT22;10710;53.398;-1.514;2023-02-23T11:27:57;9.20;99.90
21104;DHT22;10710;53.398;-1.514;2023-02-23T11:30:27;9.10;99.90
21104;DHT22;10710;53.398;-1.514;2023-02-23T11:32:58;9.00;99.90
21104;DHT22;10710;53.398;-1.514;2023-02-23T11:35:29;9.10;99.90
21104;DHT22;10710;53.398;-1.514;2023-02-23T11:37:55;9.20;99.90
21104;DHT22;10710;53.398;-1.514;2023-02-23T11:40:22;9.20;99.90
21104;DHT22;10710;53.398;-1.514;2023-02-23T11:42:59;9.20;99.90
21104;DHT22;10710;53.398;-1.514;2023-02-23T11:48:21;9.30;99.90
21104;DHT22;10710;53.398;-1.514;2023-02-23T11:50:48;9.50;99.90
21104;DHT22;10710;53.398;-1.514;2023-02-23T11:53:20;9.60;99.90
21104;DHT22;10710;53.398;-1.514;2023-02-23T11:55:51;9.50;99.90
21104;DHT22;10710;53.398;-1.514;2023-02-23T12:01:02;9.30;99.90
21104;DHT22;10710;53.398;-1.514;2023-02-23T12:03:31;9.20;99.90
21104;DHT22;10710;53.398;-1.514;2023-02-23T12:05:58;9.10;99.90
21104;DHT22;10710;53.398;-1.514;2023-02-23T12:08:43;9.10;99.90
21104;DHT22;10710;53.398;-1.514;2023-02-23T12:11:17;9.00;99.90
21104;DHT22;10710;53.398;-1.514;2023-02-23T12:13:49;9.00;99.90
21104;DHT22;10710;53.398;-1.514;2023-02-23T12:16:17;8.90;99.90
21104;DHT22;10710;53.398;-1.514;2023-02-23T12:21:45;9.00;99.90
21104;DHT22;10710;53.398;-1.514;2023-02-23T12:24:14;9.20;99.90
21104;DHT22;10710;53.398;-1.514;2023-02-23T12:26:53;9.20;99.90
21104;DHT22;10710;53.398;-1.514;2023-02-23T12:29:48;9.30;99.90
21104;DHT22;10710;53.398;-1.514;2023-02-23T12:32:21;9.40;99.90
21104;DHT22;10710;53.398;-1.514;2023-02-23T12:34:56;9.30;99.90
21104;DHT22;10710;53.398;-1.514;2023-02-23T12:40:18;8.70;99.90
21104;DHT22;10710;53.398;-1.514;2023-02-23T12:45:42;9.10;99.90
21104;DHT22;10710;53.398;-1.514;2023-02-23T12:50:52;9.40;99.90
21104;DHT22;10710;53.398;-1.514;2023-02-23T12:53:41;9.50;99.90
21104;DHT22;10710;53.398;-1.514;2023-02-23T13:01:58;9.80;99.90
21104;DHT22;10710;53.398;-1.514;2023-02-23T13:10:49;9.70;99.90
21104;DHT22;10710;53.398;-1.514;2023-02-23T13:21:39;8.80;99.90
21104;DHT22;10710;53.398;-1.514;2023-02-23T13:24:17;8.90;99.90
21104;DHT22;10710;53.398;-1.514;2023-02-23T13:27:02;9.10;99.90
21104;DHT22;10710;53.398;-1.514;2023-02-23T13:29:36;9.40;99.90
21104;DHT22;10710;53.398;-1.514;2023-02-23T13:32:08;9.60;99.90
21104;DHT22;10710;53.398;-1.514;2023-02-23T13:34:41;10.00;99.90
21104;DHT22;10710;53.398;-1.514;2023-02-23T13:37:07;10.00;99.90
21104;DHT22;10710;53.398;-1.514;2023-02-23T13:42:39;9.60;99.90
21104;DHT22;10710;53.398;-1.514;2023-02-23T13:53:37;9.10;99.90
21104;DHT22;10710;53.398;-1.514;2023-02-23T13:56:23;9.10;99.90
21104;DHT22;10710;53.398;-1.514;2023-02-23T13:58:57;9.20;99.90
21104;DHT22;10710;53.398;-1.514;2023-02-23T14:04:11;9.60;99.90
21104;DHT22;10710;53.398;-1.514;2023-02-23T14:06:39;9.80;99.90
21104;DHT22;10710;53.398;-1.514;2023-02-23T14:09:22;10.10;99.90
21104;DHT22;10710;53.398;-1.514;2023-02-23T14:12:13;10.50;99.90
21104;DHT22;10710;53.398;-1.514;2023-02-23T14:14:42;11.20;99.90
21104;DHT22;10710;53.398;-1.514;2023-02-23T14:19:42;12.70;99.90
21104;DHT22;10710;53.398;-1.514;2023-02-23T14:22:11;13.00;99.90
21104;DHT22;10710;53.398;-1.514;2023-02-23T14:24:38;13.00;99.90
21104;DHT22;10710;53.398;-1.514;2023-02-23T14:27:16;13.00;99.90
21104;DHT22;10710;53.398;-1.514;2023-02-23T14:29:44;13.20;99.90
21104;DHT22;10710;53.398;-1.514;2023-02-23T14:32:30;13.80;99.90
21104;DHT22;10710;53.398;-1.514;2023-02-23T14:35:03;13.70;99.90
21104;DHT22;10710;53.398;-1.514;2023-02-23T14:37:39;14.30;99.90
21104;DHT22;10710;53.398;-1.514;2023-02-23T14:40:15;14.60;99.90
21104;DHT22;10710;53.398;-1.514;2023-02-23T14:42:46;14.50;99.90
21104;DHT22;10710;53.398;-1.514;2023-02-23T14:45:32;14.30;99.90
21104;DHT22;10710;53.398;-1.514;2023-02-23T14:48:04;14.20;99.90
21104;DHT22;10710;53.398;-1.514;2023-02-23T14:50:35;14.10;99.90
21104;DHT22;10710;53.398;-1.514;2023-02-23T14:53:02;14.50;99.90
21104;DHT22;10710;53.398;-1.514;2023-02-23T14:55:33;14.90;99.90
21104;DHT22;10710;53.398;-1.514;2023-02-23T14:58:03;14.80;99.90
21104;DHT22;10710;53.398;-1.514;2023-02-23T15:00:31;15.00;99.90
21104;DHT22;10710;53.398;-1.514;2023-02-23T15:03:10;15.30;99.90
21104;DHT22;10710;53.398;-1.514;2023-02-23T15:05:47;15.40;99.90
21104;DHT22;10710;53.398;-1.514;2023-02-23T15:08:23;15.50;99.90
21104;DHT22;10710;53.398;-1.514;2023-02-23T15:10:57;15.60;99.90
21104;DHT22;10710;53.398;-1.514;2023-02-23T15:13:35;15.50;99.90
21104;DHT22;10710;53.398;-1.514;2023-02-23T15:16:14;14.90;99.90
21104;DHT22;10710;53.398;-1.514;2023-02-23T15:18:42;14.30;99.90
21104;DHT22;10710;53.398;-1.514;2023-02-23T15:21:20;13.80;99.90
21104;DHT22;10710;53.398;-1.514;2023-02-23T15:23:57;13.10;99.90
21104;DHT22;10710;53.398;-1.514;2023-02-23T15:26:28;12.80;99.90
21104;DHT22;10710;53.398;-1.514;2023-02-23T15:29:16;12.70;99.90
21104;DHT22;10710;53.398;-1.514;2023-02-23T15:31:45;12.50;99.90
21104;DHT22;10710;53.398;-1.514;2023-02-23T15:34:23;12.90;99.90
21104;DHT22;10710;53.398;-1.514;2023-02-23T15:37:16;13.30;99.90
21104;DHT22;10710;53.398;-1.514;2023-02-23T15:40:14;13.90;99.90
21104;DHT22;10710;53.398;-1.514;2023-02-23T15:42:55;14.60;99.90
21104;DHT22;10710;53.398;-1.514;2023-02-23T15:45:36;14.80;99.90
21104;DHT22;10710;53.398;-1.514;2023-02-23T15:48:07;14.40;99.90
21104;DHT22;10710;53.398;-1.514;2023-02-23T15:50:42;13.90;99.90
21104;DHT22;10710;53.398;-1.514;2023-02-23T15:55:54;12.70;99.90
21104;DHT22;10710;53.398;-1.514;2023-02-23T15:58:27;11.70;99.90
21104;DHT22;10710;53.398;-1.514;2023-02-23T16:01:07;11.00;99.90
21104;DHT22;10710;53.398;-1.514;2023-02-23T16:03:36;10.80;99.90
21104;DHT22;10710;53.398;-1.514;2023-02-23T16:06:03;10.60;99.90
21104;DHT22;10710;53.398;-1.514;2023-02-23T16:08:31;10.50;99.90
21104;DHT22;10710;53.398;-1.514;2023-02-23T16:13:33;10.30;99.90
21104;DHT22;10710;53.398;-1.514;2023-02-23T16:15:59;10.20;99.90
21104;DHT22;10710;53.398;-1.514;2023-02-23T16:18:51;10.20;99.90
21104;DHT22;10710;53.398;-1.514;2023-02-23T16:21:21;10.20;99.90
21104;DHT22;10710;53.398;-1.514;2023-02-23T16:23:52;10.10;99.90
21104;DHT22;10710;53.398;-1.514;2023-02-23T16:26:23;10.00;99.90
21104;DHT22;10710;53.398;-1.514;2023-02-23T16:28:57;9.80;99.90
21104;DHT22;10710;53.398;-1.514;2023-02-23T16:34:32;9.80;99.90
21104;DHT22;10710;53.398;-1.514;2023-02-23T16:37:16;9.60;99.90
21104;DHT22;10710;53.398;-1.514;2023-02-23T16:39:43;9.40;99.90
21104;DHT22;10710;53.398;-1.514;2023-02-23T16:44:44;9.30;99.90
21104;DHT22;10710;53.398;-1.514;2023-02-23T16:47:32;9.20;99.90
21104;DHT22;10710;53.398;-1.514;2023-02-23T16:50:04;9.10;99.90
21104;DHT22;10710;53.398;-1.514;2023-02-23T16:52:37;9.10;99.90
21104;DHT22;10710;53.398;-1.514;2023-02-23T16:55:03;8.90;99.90
21104;DHT22;10710;53.398;-1.514;2023-02-23T16:57:38;8.90;99.90
21104;DHT22;10710;53.398;-1.514;2023-02-23T17:00:05;8.90;99.90
21104;DHT22;10710;53.398;-1.514;2023-02-23T17:02:40;8.80;99.90
21104;DHT22;10710;53.398;-1.514;2023-02-23T17:05:14;8.70;99.90
21104;DHT22;10710;53.398;-1.514;2023-02-23T17:07:40;8.60;99.90
21104;DHT22;10710;53.398;-1.514;2023-02-23T17:10:07;8.60;99.90
21104;DHT22;10710;53.398;-1.514;2023-02-23T17:12:33;8.50;99.90
21104;DHT22;10710;53.398;-1.514;2023-02-23T17:14:59;8.50;99.90
21104;DHT22;10710;53.398;-1.514;2023-02-23T17:17:25;8.40;99.90
21104;DHT22;10710;53.398;-1.514;2023-02-23T17:19:50;8.30;99.90
21104;DHT22;10710;53.398;-1.514;2023-02-23T17:22:16;8.30;99.90
21104;DHT22;10710;53.398;-1.514;2023-02-23T17:24:42;8.20;99.90
21104;DHT22;10710;53.398;-1.514;2023-02-23T17:27:09;8.20;99.90
21104;DHT22;10710;53.398;-1.514;2023-02-23T17:29:36;8.10;99.90
21104;DHT22;10710;53.398;-1.514;2023-02-23T17:32:01;8.00;99.90
21104;DHT22;10710;53.398;-1.514;2023-02-23T17:34:28;8.00;99.90
21104;DHT22;10710;53.398;-1.514;2023-02-23T17:36:54;7.90;99.90
21104;DHT22;10710;53.398;-1.514;2023-02-23T17:39:20;7.80;99.90
21104;DHT22;10710;53.398;-1.514;2023-02-23T17:41:46;7.80;99.90
21104;DHT22;10710;53.398;-1.514;2023-02-23T17:44:12;7.70;99.90
21104;DHT22;10710;53.398;-1.514;2023-02-23T17:46:37;7.60;99.90
21104;DHT22;10710;53.398;-1.514;2023-02-23T17:49:03;7.50;99.90
21104;DHT22;10710;53.398;-1.514;2023-02-23T17:51:29;7.40;99.90
21104;DHT22;10710;53.398;-1.514;2023-02-23T17:53:54;7.40;99.90